Flight Track Log - Related Links

Times and Time Zones

All times are in EDT time to prevent confusion due to time zone crossing. See the FRG1537 flight status page for this flight to view local times or setup timezone preferences in your user account.

Time Position Orientation Groundspeed Altitude Reporting Facility
EDT Latitude Longitude Course Direction KTS MPH feet Rate Location/Type
Tue 09:41:09 PM 43.1331 -89.2156 90° East 154 177 4,800  Level Chicago Center
Tue 09:42:10 PM 43.1311 -89.1458 92° East 169 194 5,900 1,073 Climbing Chicago Center
Tue 09:43:12 PM 43.1411 -89.0658 80° East 205 236 7,000 488 Climbing Chicago Center
Tue 09:44:13 PM 43.1539 -88.9767 79° East 231 266 6,900  Descending Chicago Center
Tue 09:45:00 PM 43.1168 -88.8442 90° East  Level FlightAware Approximate
Tue 09:45:15 PM 43.1658 -88.8786 80° East 256 295 7,000  Level Chicago Center
Tue 09:46:00 PM 43.1169 -88.7624 90° East  Level FlightAware Approximate
Tue 09:46:16 PM 43.1894 -88.7661 74° East 261 300 7,000  Level Chicago Center
Tue 09:47:18 PM 43.1922 -88.6642 88° East 269 310 7,100 49 Climbing Chicago Center
Tue 09:48:19 PM 43.1967 -88.5622 87° East 269 310 7,100  Level Chicago Center
Tue 09:49:21 PM 43.1892 -88.4619 96° East 268 308 7,100 -49 Level Chicago Center
Tue 09:50:22 PM 43.1792 -88.3653 98° East 260 299 7,000 -341 Descending Chicago Center
Tue 09:51:24 PM 43.1658 -88.2808 102° East 233 268 6,400 -976 Descending Chicago Center
Tue 09:52:25 PM 43.1339 -88.1842 114° Southeast 238 274 5,000 -984 Descending Chicago Center
Tue 09:53:26 PM 43.0964 -88.1094 124° Southeast 239 275 4,400 -698 Descending Chicago Center
Tue 09:53:51 PM 43.0833 -88.0833 124° Southeast 216 249 4,000 -424 Descending KMKE
Tue 09:54:51 PM 43.0333 -88.0167 136° Southeast 223 257 3,800 -650 Descending KMKE
Tue 09:55:51 PM 43.0000 -87.9500 124° Southeast 239 275 2,700 -645 Descending KMKE
Tue 09:56:52 PM 42.9833 -87.8667 105° East 188 216 2,500 -119 Descending KMKE
Tue 09:57:32 PM 42.9925 -87.8353 68° East 185 213 2,500 -412 Level Chicago Center
Tue 09:58:34 PM 42.9625 -87.8350 180° South 145 167 1,800 -780 Descending Chicago Center
Tue 09:59:35 PM 42.9475 -87.8803 246° West 137 158 900 -885 Descending Chicago Center
Tue 10:01:00 PM 42.9333 -87.8833 124° Southeast  Level FlightAware Approximate

Login

Don't have an account? Register now (free) for customized features, flight alerts, and more!